Time;durP1;ratioP1;P1;durP2;ratioP2;P2;SDS_P1;SDS_P2;PMS_P1;PMS_P2;Temp;Humidity;BMP_temperature;BMP_pressure;BME280_temperature;BME280_humidity;BME280_pressure;Samples;Min_cycle;Max_cycle;Signal;HPM_P1;HPM_P2
2022/01/23 00:01:06;;;;;;;59.38;35.22;;;26.70;99.90;;;;;;5033563;28;20097;-70
2022/01/23 00:03:33;;;;;;;60.33;34.17;;;26.70;99.90;;;;;;5033404;28;20021;-70
2022/01/23 00:05:59;;;;;;;49.85;34.03;;;26.70;99.90;;;;;;5033638;28;20454;-70
2022/01/23 00:08:26;;;;;;;50.75;32.20;;;26.70;99.90;;;;;;5033480;28;20023;-70
2022/01/23 00:10:55;;;;;;;40.60;29.05;;;26.70;99.90;;;;;;5033594;28;20532;-70
2022/01/23 00:13:32;;;;;;;53.47;32.03;;;26.70;99.90;;;;;;5033429;28;20037;-70
2022/01/23 00:18:37;;;;;;;63.92;37.08;;;26.80;99.90;;;;;;5026707;28;20033;-70
2022/01/23 00:21:03;;;;;;;78.00;43.90;;;26.90;99.90;;;;;;5029207;28;20041;-70
2022/01/23 00:30:20;;;;;;;87.15;49.38;;;26.90;99.90;;;;;;5031653;28;20031;-70
2022/01/23 00:31:22;;;;;;;88.00;49.33;;;27.00;99.90;;;;;;5031542;28;20033;-73
2022/01/23 00:33:51;;;;;;;177.98;118.72;;;27.00;99.90;;;;;;5031156;28;20036;-70
2022/01/23 00:36:18;;;;;;;90.60;53.85;;;27.00;99.90;;;;;;5030232;28;20075;-70
2022/01/23 00:38:45;;;;;;;74.20;46.55;;;27.00;99.90;;;;;;5030627;28;20044;-69
2022/01/23 00:41:11;;;;;;;59.72;38.75;;;27.00;99.90;;;;;;5025833;28;20057;-71
2022/01/23 00:43:41;;;;;;;62.00;35.38;;;27.10;99.90;;;;;;5030133;28;20025;-71
2022/01/23 00:46:23;;;;;;;66.53;38.13;;;27.10;99.90;;;;;;5029233;28;20374;-72
2022/01/23 00:51:23;;;;;;;55.33;39.25;;;27.10;99.90;;;;;;5028795;28;20033;-68
2022/01/23 00:53:50;;;;;;;58.05;34.90;;;27.20;99.90;;;;;;5031038;28;20021;-70
2022/01/23 00:56:16;;;;;;;52.60;34.55;;;27.20;99.90;;;;;;5030522;28;20466;-73
2022/01/23 00:58:44;;;;;;;147.35;108.78;;;27.20;99.90;;;;;;5026335;28;20021;-71
2022/01/23 01:01:12;;;;;;;129.77;92.93;;;27.30;99.90;;;;;;5027374;28;20033;-71
2022/01/23 01:03:39;;;;;;;54.72;36.63;;;27.40;99.90;;;;;;5026211;28;20018;-71
2022/01/23 01:06:05;;;;;;;60.00;38.55;;;27.50;99.90;;;;;;5026385;28;20033;-71
2022/01/23 01:08:32;;;;;;;56.15;35.50;;;27.60;99.90;;;;;;5029233;28;20390;-70
2022/01/23 01:11:19;;;;;;;192.50;126.55;;;27.60;99.90;;;;;;5019885;28;20374;-69
2022/01/23 01:32:05;;;;;;;34.78;16.35;;;28.10;99.90;;;;;;5027967;28;20013;-69
2022/01/23 01:37:02;;;;;;;26.10;13.65;;;28.20;99.90;;;;;;5030214;28;20030;-70
2022/01/23 01:39:29;;;;;;;28.50;13.77;;;28.30;99.90;;;;;;5030661;28;20489;-70
2022/01/23 01:41:57;;;;;;;25.55;15.07;;;28.30;99.90;;;;;;5030258;28;20018;-71
2022/01/23 01:44:24;;;;;;;32.63;14.80;;;28.40;99.90;;;;;;5025140;28;20025;-71
2022/01/23 01:46:51;;;;;;;30.73;16.35;;;28.40;99.90;;;;;;5019239;28;20022;-70
2022/01/23 01:49:26;;;;;;;35.35;19.85;;;28.50;99.90;;;;;;5020022;28;20060;-71
2022/01/23 01:51:55;;;;;;;228.55;149.43;;;28.60;99.90;;;;;;5030381;28;20374;-73
2022/01/23 01:54:23;;;;;;;68.57;39.97;;;28.70;99.90;;;;;;5021757;28;20026;-71
2022/01/23 01:56:53;;;;;;;108.93;76.75;;;28.70;99.90;;;;;;5031880;28;20030;-72
2022/01/23 01:59:46;;;;;;;67.25;48.47;;;28.80;99.90;;;;;;5031779;28;20025;-72
2022/01/23 02:09:50;;;;;;;40.33;29.95;;;28.90;99.90;;;;;;5028112;28;20022;-72
2022/01/23 02:15:11;;;;;;;48.33;35.75;;;29.00;99.90;;;;;;5023288;28;20164;-71
2022/01/23 02:50:35;;;;;;;91.68;68.70;;;29.10;99.90;;;;;;5033266;28;20407;-70
2022/01/23 02:57:12;;;;;;;41.00;23.13;;;29.60;99.90;;;;;;5033136;28;20092;-71
2022/01/23 02:59:40;;;;;;;32.67;23.83;;;29.80;99.90;;;;;;5034301;28;20087;-68
2022/01/23 03:02:13;;;;;;;31.50;20.30;;;29.80;99.90;;;;;;5034174;28;20022;-67
2022/01/23 03:04:49;;;;;;;37.45;23.15;;;30.00;99.90;;;;;;5031387;28;20486;-68
2022/01/23 03:07:38;;;;;;;30.90;22.38;;;30.00;99.90;;;;;;5031858;28;20494;-68
2022/01/23 03:10:05;;;;;;;41.33;23.02;;;29.90;99.90;;;;;;5034787;28;20030;-68
2022/01/23 03:15:27;;;;;;;30.92;19.17;;;29.90;99.90;;;;;;5034355;28;20080;-69
2022/01/23 03:28:36;;;;;;;30.30;18.63;;;30.20;99.90;;;;;;5033731;28;20025;-69
2022/01/23 03:33:33;;;;;;;33.38;19.40;;;30.10;99.90;;;;;;5016389;28;20030;-69
2022/01/23 03:36:00;;;;;;;41.00;21.10;;;30.10;99.90;;;;;;5016443;28;20018;-69
2022/01/23 03:38:27;;;;;;;47.42;27.10;;;30.20;99.90;;;;;;5023634;28;20029;-70
2022/01/23 03:40:54;;;;;;;37.92;20.35;;;30.30;99.90;;;;;;5030567;28;20148;-70
2022/01/23 03:43:28;;;;;;;35.53;20.17;;;30.40;99.90;;;;;;5030924;28;20037;-70
2022/01/23 03:46:20;;;;;;;29.40;18.73;;;30.50;99.90;;;;;;5028756;28;20065;-69
2022/01/23 03:51:11;;;;;;;70.20;41.20;;;30.60;99.90;;;;;;5018516;28;20227;-70
2022/01/23 03:53:39;;;;;;;41.47;21.77;;;30.70;99.90;;;;;;5023759;28;20029;-69
2022/01/23 03:56:06;;;;;;;41.28;24.92;;;30.70;99.90;;;;;;5024455;28;20474;-69
2022/01/23 03:58:34;;;;;;;38.88;19.83;;;30.70;99.90;;;;;;5022846;28;20052;-69
2022/01/23 04:01:01;;;;;;;25.90;15.50;;;30.80;99.90;;;;;;5023676;28;20029;-69
2022/01/23 04:03:30;;;;;;;25.77;14.88;;;30.80;99.90;;;;;;5033400;28;20029;-70
2022/01/23 04:05:57;;;;;;;27.30;15.85;;;30.90;99.90;;;;;;5031259;28;20033;-69
2022/01/23 04:08:25;;;;;;;24.38;13.60;;;30.90;99.90;;;;;;5021597;28;20104;-70
2022/01/23 04:10:52;;;;;;;30.48;12.82;;;30.90;99.90;;;;;;5027232;28;20034;-71
2022/01/23 04:13:25;;;;;;;33.60;13.15;;;30.90;99.30;;;;;;5024465;28;20101;-69
2022/01/23 04:16:08;;;;;;;28.90;14.00;;;31.00;99.90;;;;;;5024333;28;20026;-70
2022/01/23 04:33:56;;;;;;;25.25;14.13;;;31.20;97.80;;;;;;5031591;28;20562;-72
2022/01/23 05:00:02;;;;;;;23.63;13.27;;;31.90;94.20;;;;;;5029957;28;20025;-68
2022/01/23 05:05:08;;;;;;;41.88;28.00;;;31.80;93.90;;;;;;5030969;28;20022;-68
2022/01/23 05:07:35;;;;;;;49.42;31.63;;;31.90;93.50;;;;;;5032617;28;20025;-73
2022/01/23 05:10:02;;;;;;;24.55;14.23;;;31.90;94.10;;;;;;5034427;28;20474;-68
2022/01/23 05:12:32;;;;;;;77.45;50.47;;;32.10;93.60;;;;;;5026859;28;20385;-69
2022/01/23 05:14:58;;;;;;;25.92;12.93;;;32.10;93.30;;;;;;5037741;28;20040;-70
2022/01/23 05:17:26;;;;;;;29.15;14.05;;;32.10;91.90;;;;;;5037163;28;20394;-70
2022/01/23 05:19:53;;;;;;;23.40;13.50;;;32.20;92.80;;;;;;5037732;28;20025;-68
2022/01/23 05:25:02;;;;;;;21.20;13.43;;;32.50;90.90;;;;;;5036397;28;20128;-69
2022/01/23 05:27:31;;;;;;;54.00;15.80;;;32.50;91.70;;;;;;5037081;28;20072;-68
2022/01/23 05:29:59;;;;;;;24.70;11.95;;;32.50;91.60;;;;;;5036257;28;20068;-69
2022/01/23 05:32:33;;;;;;;18.17;12.63;;;32.50;88.50;;;;;;5035845;28;20457;-70
2022/01/23 05:35:00;;;;;;;21.45;12.23;;;32.40;90.30;;;;;;5034294;28;20026;-68
2022/01/23 05:37:26;;;;;;;24.27;12.48;;;32.50;91.10;;;;;;5034622;28;20041;-68
2022/01/23 05:39:53;;;;;;;33.63;12.70;;;32.50;90.80;;;;;;5034943;28;20037;-69
2022/01/23 05:42:20;;;;;;;16.15;11.65;;;32.50;87.20;;;;;;5033789;28;20091;-68
2022/01/23 05:44:46;;;;;;;19.85;11.88;;;32.50;90.20;;;;;;5034691;28;20573;-70
2022/01/23 05:47:14;;;;;;;21.70;11.13;;;32.30;90.10;;;;;;5030127;28;20040;-69
2022/01/23 05:49:41;;;;;;;20.10;12.90;;;32.20;91.00;;;;;;5029366;28;20061;-70
2022/01/23 05:52:08;;;;;;;22.90;13.73;;;32.20;91.20;;;;;;5028549;28;20046;-71
2022/01/23 05:54:35;;;;;;;24.02;12.40;;;32.20;90.90;;;;;;5028344;28;20049;-70
2022/01/23 05:57:02;;;;;;;19.65;12.00;;;32.30;89.50;;;;;;5030434;28;20029;-71
2022/01/23 05:59:29;;;;;;;26.30;11.88;;;32.40;90.40;;;;;;5024301;28;20052;-71
2022/01/23 06:01:59;;;;;;;22.92;12.23;;;32.50;90.10;;;;;;5026185;28;20041;-67
2022/01/23 06:04:26;;;;;;;21.65;11.93;;;32.60;88.90;;;;;;5026116;28;20049;-69
2022/01/23 06:06:55;;;;;;;17.73;11.82;;;32.60;88.20;;;;;;5028481;28;20474;-70
2022/01/23 06:09:22;;;;;;;16.83;10.80;;;32.60;89.20;;;;;;5029943;28;21045;-69
2022/01/23 06:11:50;;;;;;;21.23;12.27;;;32.50;89.00;;;;;;5022153;28;20435;-70
2022/01/23 06:14:18;;;;;;;46.05;28.45;;;32.40;90.10;;;;;;5025265;28;20052;-70
2022/01/23 06:16:44;;;;;;;87.45;58.42;;;32.50;90.30;;;;;;5025755;28;20021;-70
2022/01/23 06:19:11;;;;;;;32.10;18.60;;;32.60;88.70;;;;;;5024758;28;20033;-70
2022/01/23 06:21:38;;;;;;;24.48;15.38;;;32.70;89.50;;;;;;5024031;28;20040;-69
2022/01/23 06:26:43;;;;;;;17.45;13.10;;;32.90;86.80;;;;;;5024460;28;20068;-69
2022/01/23 06:29:11;;;;;;;18.20;11.65;;;33.00;86.70;;;;;;5029777;28;20033;-68
2022/01/23 06:31:39;;;;;;;30.67;14.15;;;33.00;86.80;;;;;;5035705;28;20454;-68
2022/01/23 06:34:10;;;;;;;25.92;12.57;;;33.10;87.70;;;;;;5035520;28;20478;-67
2022/01/23 06:36:37;;;;;;;19.75;11.38;;;33.10;87.50;;;;;;5035593;28;20038;-68
2022/01/23 06:39:07;;;;;;;16.77;12.25;;;33.20;85.30;;;;;;5035742;28;20470;-67
2022/01/23 06:41:34;;;;;;;19.55;12.60;;;33.10;84.90;;;;;;5035369;28;20116;-68
2022/01/23 06:44:01;;;;;;;18.67;12.10;;;33.10;86.10;;;;;;5035556;28;20486;-67
2022/01/23 06:46:28;;;;;;;21.15;10.77;;;33.10;85.00;;;;;;5035329;28;20034;-68
2022/01/23 06:48:54;;;;;;;22.48;11.20;;;33.10;84.40;;;;;;5035491;28;20493;-68
2022/01/23 06:51:21;;;;;;;16.70;10.52;;;33.10;83.30;;;;;;5035620;28;20044;-66
2022/01/23 06:53:47;;;;;;;22.40;13.13;;;33.30;84.80;;;;;;5035514;28;20030;-70
2022/01/23 06:56:14;;;;;;;18.52;11.73;;;33.40;85.40;;;;;;5034996;28;20022;-70
2022/01/23 06:58:41;;;;;;;19.20;11.40;;;33.40;84.00;;;;;;5035154;28;20428;-73
2022/01/23 07:01:07;;;;;;;20.55;12.02;;;33.30;83.30;;;;;;5035003;28;20049;-70
2022/01/23 07:03:38;;;;;;;16.90;11.95;;;33.40;82.50;;;;;;5035229;28;20025;-72
2022/01/23 07:06:05;;;;;;;22.85;13.75;;;33.40;81.90;;;;;;5035080;28;20017;-72
2022/01/23 07:08:32;;;;;;;24.08;14.32;;;33.40;81.70;;;;;;5034997;28;20035;-69
2022/01/23 07:10:59;;;;;;;23.55;13.27;;;33.40;80.00;;;;;;5034715;28;20025;-68
2022/01/23 07:13:26;;;;;;;24.02;12.15;;;33.40;82.50;;;;;;5035060;28;20032;-69
2022/01/23 07:15:53;;;;;;;14.77;10.18;;;33.50;82.40;;;;;;5034634;28;20029;-69
2022/01/23 07:18:21;;;;;;;22.48;11.48;;;33.60;82.30;;;;;;5034889;28;20041;-69
2022/01/23 07:20:48;;;;;;;19.80;11.82;;;33.70;82.20;;;;;;5034672;28;20373;-69
2022/01/23 07:23:21;;;;;;;21.77;11.52;;;33.70;79.40;;;;;;5034611;28;20022;-69
2022/01/23 07:25:48;;;;;;;19.25;13.10;;;33.60;80.30;;;;;;5034738;28;20033;-69
2022/01/23 07:28:17;;;;;;;22.20;12.02;;;33.50;81.20;;;;;;5034600;28;20025;-68
2022/01/23 07:30:51;;;;;;;25.73;13.15;;;33.50;82.40;;;;;;5034621;28;20079;-67
2022/01/23 07:33:18;;;;;;;18.13;12.63;;;33.50;80.30;;;;;;5034665;28;20048;-68
2022/01/23 07:35:44;;;;;;;20.25;12.88;;;33.60;81.40;;;;;;5034676;28;20036;-68
2022/01/23 07:38:16;;;;;;;21.58;12.70;;;33.70;81.00;;;;;;5031044;28;20141;-69
2022/01/23 07:40:48;;;;;;;19.70;12.85;;;33.80;77.70;;;;;;5014850;28;20037;-69
2022/01/23 07:43:15;;;;;;;28.13;14.95;;;33.70;78.80;;;;;;5014733;28;20022;-68
2022/01/23 07:45:41;;;;;;;21.15;11.93;;;33.70;80.30;;;;;;5014395;28;20097;-69
2022/01/23 07:48:08;;;;;;;23.40;12.65;;;33.80;79.00;;;;;;5014459;28;20030;-72
2022/01/23 07:50:35;;;;;;;26.98;17.40;;;33.80;79.90;;;;;;5014418;28;20026;-74
2022/01/23 07:53:02;;;;;;;25.45;15.65;;;33.70;76.90;;;;;;5014423;28;20037;-74
2022/01/23 07:55:29;;;;;;;18.20;12.15;;;33.60;78.30;;;;;;5014486;28;20101;-74
2022/01/23 07:58:02;;;;;;;21.15;13.93;;;33.60;79.10;;;;;;5014159;28;20383;-73
2022/01/23 08:00:29;;;;;;;21.77;12.00;;;33.60;81.10;;;;;;5013977;28;20018;-72
2022/01/23 08:02:57;;;;;;;26.27;16.10;;;33.60;82.10;;;;;;5014224;28;20379;-74
2022/01/23 08:05:23;;;;;;;38.97;23.83;;;33.60;79.80;;;;;;5014151;28;20480;-74
2022/01/23 08:07:50;;;;;;;39.35;23.92;;;33.60;78.40;;;;;;5014038;28;20026;-75
2022/01/23 08:10:16;;;;;;;24.83;17.63;;;33.60;80.10;;;;;;5014303;28;20030;-73
2022/01/23 08:12:43;;;;;;;38.65;23.23;;;33.60;79.00;;;;;;5014233;28;20030;-73
2022/01/23 08:15:10;;;;;;;34.80;21.52;;;33.60;77.00;;;;;;5013692;28;20025;-73
2022/01/23 08:17:36;;;;;;;48.88;32.35;;;33.60;78.40;;;;;;5013917;28;20033;-72
2022/01/23 08:20:04;;;;;;;26.90;14.80;;;33.70;77.90;;;;;;5013973;28;20024;-73
2022/01/23 08:22:32;;;;;;;21.55;12.10;;;33.80;79.70;;;;;;5013752;28;20164;-71
2022/01/23 08:25:01;;;;;;;18.95;14.48;;;33.80;75.20;;;;;;5013764;28;20482;-72
2022/01/23 08:27:29;;;;;;;21.80;12.82;;;33.80;76.20;;;;;;5013899;28;20036;-73
2022/01/23 08:29:56;;;;;;;21.08;13.88;;;33.70;76.40;;;;;;5013514;28;20036;-72
2022/01/23 08:32:23;;;;;;;23.58;14.20;;;33.80;78.30;;;;;;5014031;28;20109;-72
2022/01/23 08:34:50;;;;;;;26.42;14.98;;;33.80;75.80;;;;;;5013829;28;20022;-71
2022/01/23 08:37:16;;;;;;;19.80;12.32;;;33.80;76.70;;;;;;5013744;28;20065;-72
2022/01/23 08:39:43;;;;;;;31.83;17.20;;;33.80;77.70;;;;;;5020667;28;20508;-72
2022/01/23 08:42:12;;;;;;;35.15;21.23;;;33.80;78.20;;;;;;5033437;28;20021;-71
2022/01/23 08:44:39;;;;;;;75.13;50.92;;;33.80;78.70;;;;;;5032841;28;20033;-71
2022/01/23 08:47:07;;;;;;;35.08;24.17;;;33.90;76.50;;;;;;5033591;28;20022;-71
2022/01/23 08:49:36;;;;;;;45.58;31.77;;;33.80;77.50;;;;;;5033494;28;20029;-71
2022/01/23 08:52:04;;;;;;;67.50;47.58;;;33.80;75.50;;;;;;5033332;28;20488;-71
2022/01/23 08:54:30;;;;;;;30.63;15.73;;;33.80;77.40;;;;;;5033507;28;20075;-71
2022/01/23 08:56:57;;;;;;;33.08;18.30;;;33.80;75.10;;;;;;5031877;28;20029;-72
2022/01/23 08:59:24;;;;;;;31.23;17.90;;;33.80;76.30;;;;;;5032058;28;20034;-74
2022/01/23 09:01:51;;;;;;;21.70;13.68;;;33.80;74.90;;;;;;5033440;28;20067;-72
2022/01/23 09:04:18;;;;;;;46.78;36.30;;;33.80;74.80;;;;;;5030305;28;20033;-73
2022/01/23 09:06:46;;;;;;;23.15;16.33;;;33.70;76.30;;;;;;5025566;28;20032;-71
2022/01/23 09:09:23;;;;;;;22.33;12.75;;;33.70;77.70;;;;;;5032858;28;20155;-70
2022/01/23 09:12:01;;;;;;;27.15;12.18;;;33.80;75.50;;;;;;5030195;28;20028;-72
2022/01/23 09:14:28;;;;;;;41.83;32.05;;;33.80;74.20;;;;;;5032751;28;20022;-71
2022/01/23 09:16:55;;;;;;;31.40;25.15;;;33.80;76.30;;;;;;5031860;28;20030;-70
2022/01/23 09:19:23;;;;;;;29.55;17.42;;;33.80;76.70;;;;;;5031932;28;20044;-69
2022/01/23 09:21:51;;;;;;;24.05;15.90;;;33.70;75.50;;;;;;5025196;28;20112;-70
2022/01/23 09:24:19;;;;;;;27.60;17.20;;;33.70;76.70;;;;;;5024022;28;20045;-68
2022/01/23 09:26:52;;;;;;;24.70;14.85;;;33.70;76.80;;;;;;5021075;28;20036;-71
2022/01/23 09:29:31;;;;;;;26.75;16.38;;;33.80;76.90;;;;;;5027130;28;20057;-71
2022/01/23 09:31:58;;;;;;;32.17;19.30;;;33.80;77.40;;;;;;5017309;28;20333;-69
2022/01/23 09:34:28;;;;;;;25.63;15.48;;;33.80;78.10;;;;;;5017916;28;20390;-70
2022/01/23 09:36:57;;;;;;;25.63;16.05;;;33.80;78.10;;;;;;5020554;28;20030;-72
2022/01/23 09:39:24;;;;;;;22.52;12.75;;;33.80;77.80;;;;;;5022266;28;20030;-70
2022/01/23 09:42:13;;;;;;;28.08;14.85;;;33.70;75.00;;;;;;5023721;28;20028;-71
2022/01/23 09:44:51;;;;;;;32.13;14.02;;;33.70;76.20;;;;;;5027064;28;20239;-71
2022/01/23 09:47:20;;;;;;;27.33;14.63;;;33.70;76.60;;;;;;5025172;28;20236;-73
2022/01/23 09:49:48;;;;;;;25.27;13.73;;;33.70;75.80;;;;;;5025502;28;20080;-71
2022/01/23 09:52:16;;;;;;;20.48;13.07;;;33.70;77.80;;;;;;5022981;28;20030;-71
2022/01/23 09:54:45;;;;;;;34.20;17.88;;;33.70;77.10;;;;;;5021483;28;20105;-69
2022/01/23 09:57:13;;;;;;;36.03;16.02;;;33.70;76.40;;;;;;5022787;28;20092;-71
2022/01/23 09:59:40;;;;;;;41.70;18.70;;;33.70;74.80;;;;;;5025189;28;20022;-72
2022/01/23 10:02:08;;;;;;;23.10;15.10;;;33.60;77.50;;;;;;5027715;28;20021;-71
2022/01/23 10:04:34;;;;;;;28.27;17.00;;;33.60;76.90;;;;;;5027046;28;20018;-71
2022/01/23 10:07:05;;;;;;;34.75;18.05;;;33.70;77.80;;;;;;5027468;28;20014;-71
2022/01/23 10:09:33;;;;;;;37.47;21.60;;;33.70;76.50;;;;;;5031233;28;20027;-71
2022/01/23 10:12:00;;;;;;;50.60;25.20;;;33.60;75.50;;;;;;5035778;28;20470;-70
2022/01/23 10:14:26;;;;;;;46.92;28.15;;;33.60;76.50;;;;;;5035653;28;20025;-70
2022/01/23 10:16:53;;;;;;;37.45;22.77;;;33.60;78.00;;;;;;5035714;28;20019;-71
2022/01/23 10:19:20;;;;;;;39.80;22.75;;;33.60;77.60;;;;;;5032457;28;20044;-72
2022/01/23 10:21:48;;;;;;;31.88;18.63;;;33.60;78.80;;;;;;5034242;28;20401;-72
2022/01/23 10:24:15;;;;;;;32.10;16.73;;;33.50;78.70;;;;;;5035468;28;20029;-70
2022/01/23 10:26:57;;;;;;;28.50;16.42;;;33.40;79.50;;;;;;5035766;28;20432;-69
2022/01/23 10:29:26;;;;;;;29.23;15.63;;;33.40;79.60;;;;;;5032814;28;20026;-72
2022/01/23 10:32:07;;;;;;;27.10;16.33;;;33.30;79.10;;;;;;5035350;28;20474;-70
2022/01/23 10:34:47;;;;;;;28.53;15.00;;;33.30;79.10;;;;;;5034377;28;20470;-74
2022/01/23 10:37:26;;;;;;;27.95;15.00;;;33.20;78.20;;;;;;5029672;28;20064;-71
2022/01/23 10:39:52;;;;;;;27.63;20.55;;;33.20;79.10;;;;;;5033994;28;20018;-71
2022/01/23 10:47:51;;;;;;;37.03;20.73;;;33.10;80.00;;;;;;5028491;28;20034;-73
2022/01/23 10:50:23;;;;;;;68.30;42.53;;;33.10;80.50;;;;;;5028538;28;20076;-72
2022/01/23 10:52:51;;;;;;;44.95;31.45;;;33.00;83.10;;;;;;5027322;28;20033;-72
2022/01/23 10:55:24;;;;;;;41.85;27.45;;;32.90;84.70;;;;;;5024792;28;20033;-72
2022/01/23 10:58:00;;;;;;;44.78;26.35;;;32.80;86.10;;;;;;5024868;28;20021;-73
2022/01/23 11:00:38;;;;;;;46.00;29.02;;;32.70;87.60;;;;;;5026089;28;20025;-73
2022/01/23 11:03:17;;;;;;;56.15;31.27;;;32.60;87.70;;;;;;5026078;28;20028;-72
2022/01/23 11:05:45;;;;;;;60.45;35.25;;;32.60;89.40;;;;;;5027281;28;20374;-71
2022/01/23 11:08:26;;;;;;;60.08;33.58;;;32.50;89.80;;;;;;5025402;28;20038;-72
2022/01/23 11:10:59;;;;;;;54.33;29.55;;;32.30;90.10;;;;;;5027894;28;20735;-72
2022/01/23 11:19:10;;;;;;;88.75;51.70;;;32.20;90.90;;;;;;5023266;28;20030;-71
2022/01/23 11:21:38;;;;;;;67.90;40.17;;;32.20;91.10;;;;;;5025683;28;20136;-68
2022/01/23 11:24:05;;;;;;;77.85;48.65;;;32.10;91.40;;;;;;5024939;28;20034;-67
2022/01/23 11:26:31;;;;;;;54.05;31.20;;;32.10;91.70;;;;;;5027858;28;20541;-69
2022/01/23 11:29:12;;;;;;;50.58;32.03;;;32.00;91.70;;;;;;5030301;28;20598;-68
2022/01/23 11:31:40;;;;;;;43.85;28.10;;;32.00;92.40;;;;;;5026700;28;20544;-67
2022/01/23 11:34:08;;;;;;;69.60;50.03;;;31.80;92.80;;;;;;5027500;28;20033;-68
2022/01/23 11:36:35;;;;;;;64.13;40.25;;;31.70;92.50;;;;;;5033756;28;20030;-69
2022/01/23 11:39:12;;;;;;;65.95;38.75;;;31.60;92.90;;;;;;5033866;28;20494;-68
2022/01/23 11:55:05;;;;;;;43.47;24.63;;;31.20;94.90;;;;;;5029806;28;20018;-68
2022/01/23 11:57:35;;;;;;;42.50;25.35;;;31.20;94.90;;;;;;5033617;28;20120;-68
2022/01/23 12:00:06;;;;;;;41.60;23.45;;;31.20;95.00;;;;;;5033132;28;20096;-68
2022/01/23 12:02:37;;;;;;;41.70;23.08;;;31.10;94.80;;;;;;5032376;28;20017;-68
2022/01/23 12:05:17;;;;;;;40.60;24.13;;;31.10;95.10;;;;;;5030143;28;20030;-68
2022/01/23 12:08:06;;;;;;;40.00;21.55;;;31.00;95.40;;;;;;5031955;28;20374;-67
2022/01/23 12:10:50;;;;;;;42.05;20.83;;;31.00;95.70;;;;;;5032232;28;20024;-70
2022/01/23 12:18:43;;;;;;;50.35;29.65;;;30.80;96.60;;;;;;5030492;28;20022;-74
2022/01/23 12:21:31;;;;;;;144.15;102.25;;;30.80;96.30;;;;;;5031914;28;20383;-75
2022/01/23 12:23:59;;;;;;;61.75;39.22;;;30.70;96.90;;;;;;5032356;28;20065;-75
2022/01/23 12:26:26;;;;;;;85.50;61.92;;;30.70;97.00;;;;;;5029590;28;20151;-71
2022/01/23 12:28:53;;;;;;;63.08;42.97;;;30.70;97.40;;;;;;5032688;28;20040;-72
2022/01/23 12:31:26;;;;;;;70.78;50.15;;;30.70;97.30;;;;;;5033507;28;20036;-72
2022/01/23 12:33:58;;;;;;;69.68;46.60;;;30.70;97.20;;;;;;5033483;28;20040;-72
2022/01/23 12:36:31;;;;;;;40.75;21.67;;;30.60;97.90;;;;;;5031582;28;20021;-71
2022/01/23 12:39:09;;;;;;;40.00;21.52;;;30.60;98.10;;;;;;5029464;28;20038;-74
2022/01/23 12:41:37;;;;;;;64.82;42.67;;;30.60;98.00;;;;;;5030432;28;20032;-67
2022/01/23 12:44:23;;;;;;;39.22;17.17;;;30.50;98.50;;;;;;5033344;28;20441;-68
2022/01/23 12:46:51;;;;;;;72.05;55.20;;;30.50;98.30;;;;;;5029440;28;20480;-67
2022/01/23 12:49:30;;;;;;;80.68;51.30;;;30.50;99.10;;;;;;5025680;28;20036;-67
2022/01/23 12:52:08;;;;;;;44.97;27.58;;;30.50;99.30;;;;;;5020081;28;20025;-68
2022/01/23 12:54:56;;;;;;;47.72;31.33;;;30.50;99.30;;;;;;5017433;28;20478;-70
2022/01/23 12:57:40;;;;;;;55.80;34.13;;;30.50;99.70;;;;;;5017474;28;20030;-67
2022/01/23 13:00:15;;;;;;;36.35;19.70;;;30.50;99.90;;;;;;5019231;28;20065;-67
2022/01/23 13:02:49;;;;;;;64.60;41.05;;;30.40;99.90;;;;;;5026563;28;20088;-68
2022/01/23 13:05:17;;;;;;;209.52;171.95;;;30.50;99.90;;;;;;5034338;28;20463;-67
2022/01/23 13:10:32;;;;;;;44.08;19.65;;;30.40;99.90;;;;;;5032328;28;20030;-67
2022/01/23 13:16:02;;;;;;;28.13;15.52;;;30.30;99.90;;;;;;5029502;28;20034;-67
2022/01/23 13:31:16;;;;;;;39.30;19.70;;;29.80;99.90;;;;;;5027417;28;20438;-68
2022/01/23 13:33:42;;;;;;;35.70;19.50;;;29.80;99.90;;;;;;5032794;28;20038;-68
2022/01/23 13:36:11;;;;;;;33.47;18.85;;;29.90;99.90;;;;;;5032599;28;20029;-68
2022/01/23 13:38:39;;;;;;;33.05;18.25;;;29.80;99.90;;;;;;5035306;28;20048;-68
2022/01/23 13:41:13;;;;;;;30.02;17.95;;;29.80;99.90;;;;;;5034761;28;20044;-69
2022/01/23 14:02:17;;;;;;;38.97;20.50;;;29.50;99.90;;;;;;5030793;28;20101;-68
2022/01/23 14:04:46;;;;;;;42.20;21.92;;;29.50;99.90;;;;;;5032196;28;20113;-68
2022/01/23 14:07:18;;;;;;;33.95;20.65;;;29.40;99.90;;;;;;5034504;28;20515;-68
2022/01/23 14:09:45;;;;;;;50.10;22.35;;;29.40;99.90;;;;;;5035696;28;20025;-67
2022/01/23 14:12:14;;;;;;;36.05;19.77;;;29.40;99.90;;;;;;5035758;28;20087;-69
2022/01/23 14:15:04;;;;;;;33.72;17.85;;;29.50;99.90;;;;;;5035719;28;20052;-69
2022/01/23 14:17:36;;;;;;;33.65;17.38;;;29.50;99.90;;;;;;5026877;28;20448;-69
2022/01/23 14:20:16;;;;;;;28.10;16.17;;;29.50;99.90;;;;;;5027522;28;20072;-68
2022/01/23 14:22:47;;;;;;;30.52;16.45;;;29.40;99.90;;;;;;5032320;28;20022;-67
2022/01/23 14:25:26;;;;;;;31.67;17.50;;;29.40;99.90;;;;;;5032070;28;20066;-67
2022/01/23 14:28:06;;;;;;;31.67;17.00;;;29.40;99.90;;;;;;5024342;28;20029;-67
2022/01/23 14:30:40;;;;;;;39.13;18.38;;;29.40;99.90;;;;;;5024546;28;20117;-68
2022/01/23 14:33:19;;;;;;;35.92;17.63;;;29.40;99.90;;;;;;5026724;28;20018;-69
2022/01/23 14:35:47;;;;;;;143.30;99.10;;;29.40;99.90;;;;;;5026225;28;20437;-68
2022/01/23 14:38:28;;;;;;;43.17;21.88;;;29.40;99.90;;;;;;5034711;28;20171;-68
2022/01/23 14:41:09;;;;;;;34.03;19.52;;;29.40;99.90;;;;;;5029978;28;20026;-68
2022/01/23 14:43:39;;;;;;;33.03;17.10;;;29.40;99.90;;;;;;5034510;28;20029;-69
2022/01/23 14:46:08;;;;;;;37.42;18.42;;;29.40;99.90;;;;;;5034706;28;20356;-68
2022/01/23 14:48:48;;;;;;;37.92;17.20;;;29.40;99.90;;;;;;5034679;28;20037;-67
2022/01/23 14:51:20;;;;;;;219.35;179.30;;;29.30;99.90;;;;;;5035076;28;20063;-70
2022/01/23 14:53:48;;;;;;;34.00;21.30;;;29.10;99.90;;;;;;5035275;28;20038;-68
2022/01/23 14:56:15;;;;;;;28.88;16.52;;;29.20;99.90;;;;;;5033834;28;20403;-68
2022/01/23 14:58:43;;;;;;;30.92;16.65;;;29.20;99.90;;;;;;5024303;28;20030;-68
2022/01/23 15:01:12;;;;;;;31.73;16.45;;;29.20;99.90;;;;;;5031536;28;20021;-69
2022/01/23 15:03:43;;;;;;;32.85;17.25;;;29.20;99.90;;;;;;5029445;28;20034;-68
2022/01/23 15:06:10;;;;;;;37.38;17.90;;;29.20;99.90;;;;;;5026615;28;20024;-69
2022/01/23 15:08:38;;;;;;;34.38;18.95;;;29.20;99.90;;;;;;5024369;28;20141;-69
2022/01/23 15:11:05;;;;;;;34.42;19.20;;;29.20;99.90;;;;;;5031510;28;20115;-68
2022/01/23 15:13:31;;;;;;;37.38;20.75;;;29.20;99.90;;;;;;5026193;28;20440;-69
2022/01/23 15:15:58;;;;;;;34.00;20.25;;;29.20;99.90;;;;;;5032512;28;20421;-69
2022/01/23 15:18:26;;;;;;;32.33;20.08;;;29.10;99.90;;;;;;5025203;28;20029;-69
2022/01/23 15:20:53;;;;;;;37.30;22.50;;;29.10;99.90;;;;;;5023814;28;20025;-68
2022/01/23 15:23:19;;;;;;;33.78;22.45;;;29.10;99.90;;;;;;5025872;28;20022;-68
2022/01/23 15:25:47;;;;;;;40.38;23.02;;;29.10;99.90;;;;;;5026548;28;20018;-68
2022/01/23 15:28:15;;;;;;;38.08;24.92;;;29.00;99.90;;;;;;5023863;28;20029;-69
2022/01/23 15:30:44;;;;;;;42.92;25.48;;;29.10;99.90;;;;;;5033562;28;20022;-68
2022/01/23 15:33:11;;;;;;;42.50;27.30;;;29.00;99.90;;;;;;5030821;28;20265;-69
2022/01/23 15:35:46;;;;;;;44.88;28.95;;;29.00;99.90;;;;;;5023795;28;20026;-68
2022/01/23 15:38:19;;;;;;;51.03;29.23;;;29.00;99.90;;;;;;5023334;28;20151;-67
2022/01/23 15:40:46;;;;;;;49.30;27.77;;;28.90;99.90;;;;;;5030520;28;20467;-68
2022/01/23 15:43:13;;;;;;;48.28;30.48;;;29.00;99.90;;;;;;5026961;28;20478;-68
2022/01/23 15:45:42;;;;;;;55.03;30.65;;;29.00;99.90;;;;;;5016866;28;20032;-71
2022/01/23 15:48:09;;;;;;;51.83;32.17;;;29.00;99.90;;;;;;5024428;28;20033;-68
2022/01/23 15:50:36;;;;;;;44.95;29.05;;;29.00;99.90;;;;;;5025020;28;20570;-68
2022/01/23 15:53:03;;;;;;;50.40;29.73;;;28.90;99.90;;;;;;5029428;28;20065;-67
2022/01/23 15:55:30;;;;;;;47.75;29.10;;;28.90;99.90;;;;;;5027014;28;20537;-68
2022/01/23 15:57:57;;;;;;;39.30;28.27;;;29.00;99.90;;;;;;5025931;28;20034;-67
2022/01/23 16:00:25;;;;;;;38.22;26.60;;;29.00;99.90;;;;;;5032991;28;20080;-67
2022/01/23 16:02:52;;;;;;;42.20;24.90;;;29.00;99.90;;;;;;5027795;28;20293;-67
2022/01/23 16:05:20;;;;;;;35.42;22.83;;;28.90;99.90;;;;;;5027655;28;20030;-68
2022/01/23 16:07:47;;;;;;;39.00;21.75;;;28.90;99.90;;;;;;5025671;28;20092;-69
2022/01/23 16:10:14;;;;;;;38.15;22.60;;;28.80;99.90;;;;;;5026010;28;20474;-68